createdAt,value
2022-10-28T00:01:36.462Z,37.42
2022-10-28T00:03:04.104Z,40.60
2022-10-28T00:04:25.545Z,59.36
2022-10-28T00:05:47.192Z,42.53
2022-10-28T00:07:09.615Z,39.19
2022-10-28T00:08:30.822Z,27.97
2022-10-28T00:09:52.214Z,37.63
2022-10-28T00:11:17.572Z,32.37
2022-10-28T00:12:38.833Z,38.16
2022-10-28T00:14:01.670Z,35.50
2022-10-28T00:15:22.808Z,35.79
2022-10-28T00:16:44.484Z,33.26
2022-10-28T00:18:05.721Z,36.32
2022-10-28T00:19:27.412Z,35.09
2022-10-28T00:20:48.717Z,33.11
2022-10-28T00:22:10.350Z,35.68
2022-10-28T00:23:31.870Z,36.51
2022-10-28T00:24:53.318Z,36.07
2022-10-28T00:27:38.345Z,33.82
2022-10-28T00:29:02.484Z,30.91
2022-10-28T00:30:23.893Z,36.06
2022-10-28T00:31:45.498Z,42.64
2022-10-28T00:33:06.505Z,36.08
2022-10-28T00:34:27.870Z,37.87
2022-10-28T00:35:49.432Z,32.11
2022-10-28T00:37:10.879Z,33.89
2022-10-28T00:38:32.177Z,35.78
2022-10-28T00:39:53.254Z,29.09
2022-10-28T00:42:27.227Z,28.34
2022-10-28T00:43:51.173Z,27.88
2022-10-28T00:45:12.617Z,27.87
2022-10-28T00:46:45.144Z,25.73
2022-10-28T00:48:06.676Z,23.64
2022-10-28T00:49:29.525Z,27.18
2022-10-28T00:52:17.526Z,26.83
2022-10-28T00:53:38.905Z,24.47
2022-10-28T00:55:01.214Z,24.99
2022-10-28T00:57:47.646Z,31.59
2022-10-28T00:59:12.908Z,29.46
2022-10-28T01:00:35.218Z,26.27
2022-10-28T01:01:57.037Z,26.03
2022-10-28T01:03:18.459Z,26.92
2022-10-28T01:04:39.764Z,25.99
2022-10-28T01:06:00.852Z,26.03
2022-10-28T01:07:21.989Z,26.87
2022-10-28T01:08:43.186Z,26.11
2022-10-28T01:10:05.390Z,21.37
2022-10-28T01:11:46.688Z,23.48
2022-10-28T01:13:30.991Z,22.64
2022-10-28T01:16:48.424Z,27.89
2022-10-28T01:18:29.891Z,25.56
2022-10-28T01:20:23.570Z,25.74
2022-10-28T01:22:00.091Z,25.69
2022-10-28T01:25:19.079Z,22.74
2022-10-28T01:26:53.886Z,24.93
2022-10-28T01:28:37.024Z,24.58
2022-10-28T01:30:13.618Z,23.59
2022-10-28T01:31:47.791Z,24.03
2022-10-28T01:33:14.203Z,21.53
2022-10-28T01:35:10.960Z,21.87
2022-10-28T01:36:45.433Z,24.11
2022-10-28T01:38:16.086Z,22.80
2022-10-28T01:40:05.170Z,22.30
2022-10-28T01:41:34.072Z,21.81
2022-10-28T01:43:13.224Z,23.73
2022-10-28T01:44:41.038Z,20.67
2022-10-28T01:46:05.382Z,25.32
2022-10-28T01:48:47.602Z,21.59
2022-10-28T01:50:35.650Z,23.37
2022-10-28T01:51:59.939Z,20.30
2022-10-28T01:53:24.009Z,22.36
2022-10-28T01:54:46.850Z,22.52
2022-10-28T01:56:10.121Z,23.03
2022-10-28T01:57:31.080Z,22.81
2022-10-28T01:58:53.297Z,22.24
2022-10-28T02:00:15.635Z,24.78
2022-10-28T02:01:37.357Z,22.82
2022-10-28T02:02:58.717Z,23.51
2022-10-28T02:04:19.804Z,23.39
2022-10-28T02:05:49.291Z,23.80
2022-10-28T02:07:10.838Z,22.25
2022-10-28T02:08:52.758Z,21.79
2022-10-28T02:10:16.159Z,22.70
2022-10-28T02:11:47.157Z,24.55
2022-10-28T02:13:10.623Z,23.33
2022-10-28T02:14:54.948Z,27.84
2022-10-28T02:16:29.271Z,27.72
2022-10-28T02:20:24.890Z,21.31
2022-10-28T02:22:10.851Z,31.73
2022-10-28T02:23:45.188Z,29.30
2022-10-28T02:25:16.306Z,27.89
2022-10-28T02:26:44.879Z,24.32
2022-10-28T02:28:07.575Z,26.82
2022-10-28T02:30:55.082Z,28.58
2022-10-28T02:32:19.310Z,28.44
2022-10-28T02:33:40.579Z,26.11
2022-10-28T02:35:01.663Z,24.13
2022-10-28T02:36:22.801Z,25.98
2022-10-28T02:37:44.805Z,25.33
2022-10-28T02:39:06.108Z,27.36
2022-10-28T02:40:27.298Z,28.35
2022-10-28T02:41:51.296Z,26.89
2022-10-28T02:43:12.779Z,25.66
2022-10-28T02:44:35.570Z,23.76
2022-10-28T02:45:57.046Z,26.07
2022-10-28T02:47:20.200Z,24.92
2022-10-28T02:48:46.766Z,19.73
2022-10-28T02:50:09.903Z,21.31
2022-10-28T02:51:39.402Z,18.51
2022-10-28T02:53:01.739Z,22.22
2022-10-28T02:54:32.032Z,28.31
2022-10-28T02:55:54.257Z,21.09
2022-10-28T02:57:16.548Z,21.22
2022-10-28T02:58:38.658Z,21.31
2022-10-28T03:00:01.156Z,23.68
2022-10-28T03:03:01.620Z,20.18
2022-10-28T03:04:22.988Z,21.12
2022-10-28T03:06:55.774Z,22.71
2022-10-28T03:08:16.968Z,22.32
2022-10-28T03:09:38.536Z,24.59
2022-10-28T03:11:00.081Z,22.36
2022-10-28T03:12:21.464Z,21.12
2022-10-28T03:13:43.099Z,19.76
2022-10-28T03:15:05.106Z,23.03
2022-10-28T03:16:26.072Z,21.82
2022-10-28T03:17:47.313Z,22.37
2022-10-28T03:20:30.970Z,23.29
2022-10-28T03:21:52.114Z,25.51
2022-10-28T03:23:13.040Z,24.03
2022-10-28T03:24:34.003Z,23.12
2022-10-28T03:25:55.612Z,21.78
2022-10-28T03:27:16.969Z,22.32
2022-10-28T03:28:38.259Z,20.98
2022-10-28T03:29:59.684Z,23.65
2022-10-28T03:31:21.183Z,28.14
2022-10-28T03:32:42.532Z,29.36
2022-10-28T03:34:04.463Z,26.41
2022-10-28T03:35:25.664Z,24.13
2022-10-28T03:36:47.643Z,19.51
2022-10-28T03:38:09.251Z,23.76
2022-10-28T03:39:30.962Z,20.85
2022-10-28T03:40:52.084Z,22.53
2022-10-28T03:42:13.282Z,22.52
2022-10-28T03:43:34.408Z,22.71
2022-10-28T03:44:55.929Z,22.27
2022-10-28T03:46:17.738Z,20.48
2022-10-28T03:47:39.230Z,23.56
2022-10-28T03:49:00.516Z,21.35
2022-10-28T03:50:22.046Z,19.35
2022-10-28T03:51:43.299Z,21.06
2022-10-28T03:53:04.884Z,19.17
2022-10-28T03:54:26.622Z,21.12
2022-10-28T03:57:03.131Z,11.95
2022-10-28T03:58:24.237Z,16.62
2022-10-28T03:59:46.026Z,15.87
2022-10-28T04:01:07.724Z,15.68
2022-10-28T04:02:29.180Z,17.21
2022-10-28T04:03:50.797Z,16.27
2022-10-28T04:05:12.459Z,17.56
2022-10-28T04:06:33.978Z,14.08
2022-10-28T04:07:55.251Z,18.02
2022-10-28T04:09:16.833Z,17.81
2022-10-28T04:10:46.267Z,15.42
2022-10-28T04:13:26.699Z,24.77
2022-10-28T04:14:48.227Z,22.37
2022-10-28T04:16:09.604Z,18.01
2022-10-28T04:17:31.062Z,19.76
2022-10-28T04:18:51.992Z,25.06
2022-10-28T04:20:13.253Z,22.60
2022-10-28T04:21:34.581Z,20.53
2022-10-28T04:22:57.311Z,20.52
2022-10-28T04:24:18.430Z,24.89
2022-10-28T04:25:40.045Z,21.15
2022-10-28T04:27:01.468Z,22.37
2022-10-28T04:28:22.491Z,21.71
2022-10-28T04:29:44.023Z,22.78
2022-10-28T04:31:05.318Z,28.39
2022-10-28T04:32:26.875Z,26.64
2022-10-28T04:33:48.387Z,28.94
2022-10-28T04:35:10.225Z,26.89
2022-10-28T04:36:31.228Z,25.53
2022-10-28T04:37:52.959Z,27.33
2022-10-28T04:39:14.228Z,27.78
2022-10-28T04:40:37.425Z,26.17
2022-10-28T04:41:58.868Z,30.09
2022-10-28T04:43:20.345Z,24.02
2022-10-28T04:44:41.707Z,27.77
2022-10-28T04:46:03.131Z,17.00
2022-10-28T04:47:24.491Z,17.46
2022-10-28T04:48:46.369Z,20.47
2022-10-28T04:50:08.073Z,18.13
2022-10-28T04:51:29.177Z,18.27
2022-10-28T04:52:50.158Z,22.19
2022-10-28T04:54:11.257Z,19.16
2022-10-28T04:55:32.510Z,21.06
2022-10-28T04:56:54.141Z,19.64
2022-10-28T04:58:15.231Z,21.02
2022-10-28T04:59:36.748Z,23.88
2022-10-28T05:00:57.902Z,19.83
2022-10-28T05:02:21.085Z,24.99
2022-10-28T05:05:03.881Z,20.59
2022-10-28T05:06:24.933Z,22.07
2022-10-28T05:07:46.574Z,24.04
2022-10-28T05:09:07.723Z,21.16
2022-10-28T05:10:28.799Z,19.26
2022-10-28T05:11:50.060Z,24.07
2022-10-28T05:13:11.123Z,25.26
2022-10-28T05:14:32.018Z,21.54
2022-10-28T05:15:53.513Z,38.02
2022-10-28T05:17:15.021Z,32.67
2022-10-28T05:18:36.593Z,29.18
2022-10-28T05:19:57.949Z,33.63
2022-10-28T05:21:19.225Z,36.84
2022-10-28T05:22:50.908Z,34.45
2022-10-28T05:24:12.299Z,26.30
2022-10-28T05:25:34.954Z,24.63
2022-10-28T05:26:56.129Z,26.49
2022-10-28T05:28:17.966Z,28.68
2022-10-28T05:29:38.883Z,27.27
2022-10-28T05:31:00.137Z,29.98
2022-10-28T05:32:21.194Z,33.31
2022-10-28T05:33:42.224Z,32.65
2022-10-28T05:35:03.633Z,33.74
2022-10-28T05:36:25.441Z,29.46
2022-10-28T05:37:46.742Z,36.92
2022-10-28T05:39:07.870Z,39.39
2022-10-28T05:40:28.973Z,36.19
2022-10-28T05:41:50.214Z,39.75
2022-10-28T05:43:11.549Z,32.46
2022-10-28T05:44:32.528Z,32.99
2022-10-28T06:14:04.640Z,47.33
2022-10-28T06:15:26.054Z,47.87
2022-10-28T06:18:01.236Z,37.63
2022-10-28T06:19:23.198Z,33.76
2022-10-28T06:20:55.754Z,35.28
2022-10-28T06:22:17.377Z,38.79
2022-10-28T06:23:38.573Z,38.52
2022-10-28T06:24:59.814Z,39.73
2022-10-28T06:26:20.751Z,36.01
2022-10-28T06:27:41.850Z,34.48
2022-10-28T06:29:03.260Z,37.03
2022-10-28T06:30:25.048Z,26.72
2022-10-28T06:31:46.552Z,31.87
2022-10-28T06:33:07.939Z,44.26
2022-10-28T06:34:30.228Z,32.12
2022-10-28T06:35:56.242Z,32.79
2022-10-28T06:37:18.306Z,31.37
2022-10-28T06:38:39.377Z,21.88
2022-10-28T06:40:01.652Z,35.24
2022-10-28T06:41:22.640Z,37.05
2022-10-28T06:42:44.158Z,34.48
2022-10-28T06:44:05.693Z,34.04
2022-10-28T06:45:28.100Z,26.43
2022-10-28T06:46:50.834Z,24.71
2022-10-28T06:48:12.439Z,32.29
2022-10-28T06:49:33.973Z,31.33
2022-10-28T06:50:55.961Z,28.24
2022-10-28T06:52:18.459Z,31.29
2022-10-28T06:53:39.807Z,34.26
2022-10-28T06:55:01.804Z,28.95
2022-10-28T06:56:26.454Z,33.37
2022-10-28T06:57:48.893Z,32.74
2022-10-28T06:59:10.373Z,27.82
2022-10-28T07:00:32.935Z,29.60
2022-10-28T07:01:54.052Z,24.26
2022-10-28T07:03:15.266Z,27.77
2022-10-28T07:04:38.199Z,25.36
2022-10-28T07:05:59.457Z,22.57
2022-10-28T07:07:20.982Z,28.47
2022-10-28T07:08:42.327Z,26.48
2022-10-28T07:10:04.995Z,24.92
2022-10-28T07:11:28.174Z,21.68
2022-10-28T07:14:13.091Z,24.34
2022-10-28T07:15:34.338Z,21.43
2022-10-28T07:16:56.182Z,23.92
2022-10-28T07:18:17.507Z,31.24
2022-10-28T07:19:38.699Z,26.94
2022-10-28T07:21:00.290Z,28.88
2022-10-28T07:22:25.472Z,28.71
2022-10-28T07:23:46.027Z,29.42
2022-10-28T07:25:10.528Z,29.58
2022-10-28T07:26:32.172Z,36.52
2022-10-28T07:27:53.994Z,32.47
2022-10-28T07:29:15.812Z,30.72
2022-10-28T07:30:37.216Z,41.94
2022-10-28T07:31:58.517Z,33.77
2022-10-28T07:33:22.315Z,25.97
2022-10-28T07:34:43.285Z,28.79
2022-10-28T07:36:05.335Z,31.57
2022-10-28T07:37:28.293Z,26.73
2022-10-28T07:38:51.535Z,26.89
2022-10-28T07:40:15.656Z,31.86
2022-10-28T07:41:36.883Z,33.31
2022-10-28T07:42:58.367Z,30.36
2022-10-28T07:44:19.467Z,36.81
2022-10-28T07:45:41.011Z,30.77
2022-10-28T07:47:03.016Z,22.11
2022-10-28T07:48:24.589Z,26.71
2022-10-28T07:49:45.584Z,26.83
2022-10-28T07:51:08.414Z,28.57
2022-10-28T07:52:30.922Z,33.07
2022-10-28T07:53:52.343Z,36.55
2022-10-28T07:55:14.199Z,27.21
2022-10-28T07:56:37.505Z,36.09
2022-10-28T07:57:58.791Z,30.47
2022-10-28T07:59:26.641Z,31.41
2022-10-28T08:00:47.770Z,25.73
2022-10-28T08:02:12.920Z,25.15
2022-10-28T08:03:38.847Z,25.18
2022-10-28T08:05:09.609Z,24.88
2022-10-28T08:06:30.734Z,27.57
2022-10-28T08:07:52.013Z,24.94
2022-10-28T08:09:13.640Z,26.23
2022-10-28T08:10:35.649Z,24.64
2022-10-28T08:11:57.401Z,27.81
2022-10-28T08:13:18.913Z,28.64
2022-10-28T08:14:40.246Z,29.73
2022-10-28T08:16:01.616Z,29.89
2022-10-28T08:17:27.474Z,30.41
2022-10-28T08:18:52.059Z,22.65
2022-10-28T08:20:14.618Z,25.85
2022-10-28T08:21:36.313Z,25.60
2022-10-28T08:22:58.191Z,22.99
2022-10-28T08:24:20.562Z,22.49
2022-10-28T08:25:51.315Z,23.82
2022-10-28T08:27:13.773Z,23.26
2022-10-28T08:28:35.267Z,25.09
2022-10-28T08:29:56.620Z,23.28
2022-10-28T08:31:19.243Z,24.28
2022-10-28T08:32:40.285Z,23.73
2022-10-28T08:34:01.381Z,26.88
2022-10-28T08:35:22.633Z,25.00
2022-10-28T08:36:43.897Z,29.89
2022-10-28T08:38:08.521Z,25.84
2022-10-28T08:39:31.373Z,26.88
2022-10-28T08:41:08.503Z,33.38
2022-10-28T08:42:44.645Z,27.99
2022-10-28T08:46:05.348Z,26.62
2022-10-28T08:47:57.067Z,29.33
2022-10-28T08:49:20.133Z,27.13
2022-10-28T08:52:27.939Z,23.68
2022-10-28T08:53:55.825Z,28.91
2022-10-28T08:55:23.639Z,33.66
2022-10-28T08:56:45.484Z,36.91
2022-10-28T08:58:19.803Z,33.47
2022-10-28T08:59:41.737Z,37.18
2022-10-28T09:01:03.203Z,29.22
2022-10-28T09:02:28.304Z,32.19
2022-10-28T09:03:49.947Z,31.91
2022-10-28T09:05:26.427Z,33.26
2022-10-28T09:06:48.117Z,32.08
2022-10-28T09:09:27.708Z,29.09
2022-10-28T09:11:09.674Z,33.77
2022-10-28T09:14:13.240Z,29.62
2022-10-28T09:15:56.544Z,26.68
2022-10-28T09:17:39.789Z,37.03
2022-10-28T09:19:21.482Z,23.51
2022-10-28T09:20:52.409Z,28.90
2022-10-28T09:22:21.122Z,20.61
2022-10-28T09:23:46.111Z,23.91
2022-10-28T09:27:03.714Z,21.66
2022-10-28T09:28:41.140Z,30.10
2022-10-28T09:31:39.210Z,29.64
2022-10-28T09:33:16.562Z,22.03
2022-10-28T09:36:05.299Z,20.14
2022-10-28T09:37:32.823Z,18.93
2022-10-28T09:40:20.178Z,18.48
2022-10-28T09:41:41.634Z,26.70
2022-10-28T09:43:29.252Z,23.69
2022-10-28T09:44:58.748Z,22.98
2022-10-28T09:46:21.924Z,23.61
2022-10-28T09:47:47.016Z,25.08
2022-10-28T09:49:11.710Z,17.27
2022-10-28T09:50:33.345Z,24.67
2022-10-28T09:52:17.982Z,20.53
2022-10-28T09:53:46.371Z,25.74
2022-10-28T09:56:22.373Z,16.46
2022-10-28T09:57:43.869Z,22.54
2022-10-28T09:59:07.314Z,34.57
2022-10-28T10:00:28.791Z,20.16
2022-10-28T10:01:51.254Z,19.15
2022-10-28T10:03:12.858Z,18.84
2022-10-28T10:04:34.205Z,19.87
2022-10-28T10:05:56.423Z,21.01
2022-10-28T10:08:41.235Z,17.30
2022-10-28T10:10:14.951Z,20.51
2022-10-28T10:11:39.973Z,29.06
2022-10-28T10:13:03.314Z,23.82
2022-10-28T10:15:55.472Z,17.46
2022-10-28T10:17:21.929Z,15.77
2022-10-28T10:18:44.847Z,15.87
2022-10-28T10:20:14.748Z,19.17
2022-10-28T10:21:47.675Z,14.54
2022-10-28T10:24:40.066Z,16.36
2022-10-28T10:27:29.943Z,13.07
2022-10-28T10:28:51.273Z,13.96
2022-10-28T10:30:17.080Z,12.58
2022-10-28T10:31:38.831Z,14.26
2022-10-28T10:33:00.781Z,15.14
2022-10-28T10:35:39.972Z,11.32
2022-10-28T10:37:01.532Z,16.57
2022-10-28T10:39:47.996Z,17.46
2022-10-28T10:41:40.572Z,15.91
2022-10-28T10:43:31.630Z,15.87
2022-10-28T10:45:02.275Z,16.11
2022-10-28T10:46:24.236Z,15.89
2022-10-28T10:47:45.460Z,18.81
2022-10-28T10:49:13.423Z,13.96
2022-10-28T10:50:34.913Z,15.26
2022-10-28T10:52:01.772Z,15.07
2022-10-28T10:53:30.089Z,12.44
2022-10-28T10:55:06.421Z,11.13
2022-10-28T10:56:29.618Z,10.47
2022-10-28T11:00:36.036Z,14.56
2022-10-28T11:02:08.605Z,9.51
2022-10-28T11:03:35.405Z,12.81
2022-10-28T11:05:04.331Z,10.89
2022-10-28T11:06:40.793Z,11.92
2022-10-28T11:08:05.416Z,9.34
2022-10-28T11:10:47.776Z,8.98
2022-10-28T11:13:26.165Z,9.54
2022-10-28T11:14:57.999Z,11.91
2022-10-28T11:16:23.146Z,10.72
2022-10-28T11:19:34.579Z,10.23
2022-10-28T11:22:51.928Z,12.37
2022-10-28T11:25:36.442Z,11.99
2022-10-28T11:27:04.874Z,10.55
2022-10-28T11:30:17.939Z,11.36
2022-10-28T11:31:52.424Z,11.20
2022-10-28T11:33:30.640Z,12.16
2022-10-28T11:35:03.661Z,13.26
2022-10-28T11:36:31.938Z,8.14
2022-10-28T11:38:11.963Z,9.72
2022-10-28T11:39:33.834Z,14.17
2022-10-28T11:41:20.032Z,9.22
2022-10-28T11:43:12.724Z,8.12
2022-10-28T11:46:20.574Z,7.14
2022-10-28T11:49:28.558Z,8.28
2022-10-28T11:51:03.495Z,8.36
2022-10-28T11:52:31.048Z,10.14
2022-10-28T11:54:22.323Z,8.44
2022-10-28T11:56:08.453Z,7.49
2022-10-28T11:59:12.492Z,11.24
2022-10-28T12:00:38.318Z,17.58
2022-10-28T12:02:27.944Z,10.33
2022-10-28T12:04:08.023Z,7.69
2022-10-28T12:05:39.005Z,12.26
2022-10-28T12:07:22.275Z,12.70
2022-10-28T12:09:02.885Z,7.01
2022-10-28T12:10:48.980Z,8.35
2022-10-28T12:12:34.390Z,11.46
2022-10-28T12:14:06.840Z,11.39
2022-10-28T12:18:26.082Z,7.59
2022-10-28T12:19:57.383Z,10.56
2022-10-28T12:21:22.962Z,8.49
2022-10-28T12:22:55.582Z,10.28
2022-10-28T12:24:20.365Z,7.31
2022-10-28T12:25:42.856Z,10.61
2022-10-28T12:27:17.083Z,8.36
2022-10-28T12:28:40.305Z,8.94
2022-10-28T12:31:18.822Z,11.05
2022-10-28T12:32:40.027Z,6.03
2022-10-28T12:34:03.790Z,7.98
2022-10-28T12:35:31.508Z,8.62
2022-10-28T12:36:55.426Z,8.23
2022-10-28T12:38:38.608Z,8.23
2022-10-28T12:40:31.297Z,6.87
2022-10-28T12:42:17.784Z,6.66
2022-10-28T12:43:43.111Z,9.18
2022-10-28T12:45:09.223Z,11.64
2022-10-28T12:47:52.445Z,10.66
2022-10-28T12:50:49.489Z,10.12
2022-10-28T12:53:46.717Z,10.32
2022-10-28T12:55:37.343Z,7.39
2022-10-28T12:57:04.457Z,7.85
2022-10-28T12:58:35.458Z,11.73
2022-10-28T13:01:16.262Z,9.26
2022-10-28T13:02:40.897Z,7.16
2022-10-28T13:04:02.086Z,6.58
2022-10-28T13:05:35.478Z,12.50
2022-10-28T13:07:05.977Z,12.30
2022-10-28T13:08:47.673Z,8.77
2022-10-28T13:10:13.325Z,9.59
2022-10-28T13:11:44.290Z,12.93
2022-10-28T13:13:24.452Z,6.39
2022-10-28T13:15:10.428Z,9.79
2022-10-28T13:16:50.383Z,11.54
2022-10-28T13:18:38.321Z,11.02
2022-10-28T13:20:35.121Z,16.04
2022-10-28T13:24:06.832Z,12.35
2022-10-28T13:26:02.067Z,14.97
2022-10-28T13:27:23.488Z,13.81
2022-10-28T13:28:46.990Z,14.96
2022-10-28T13:31:39.375Z,10.31
2022-10-28T13:33:06.484Z,13.47
2022-10-28T13:34:35.542Z,11.39
2022-10-28T13:37:22.641Z,13.33
2022-10-28T13:38:55.385Z,11.59
2022-10-28T13:40:32.745Z,8.95
2022-10-28T13:42:14.030Z,6.85
2022-10-28T13:43:54.213Z,7.67
2022-10-28T13:47:04.594Z,12.05
2022-10-28T13:48:41.362Z,10.31
2022-10-28T13:50:10.976Z,9.15
2022-10-28T13:51:32.509Z,9.11
2022-10-28T13:53:26.332Z,10.56
2022-10-28T13:54:51.560Z,8.81
2022-10-28T13:57:36.020Z,15.39
2022-10-28T13:59:06.712Z,12.62
2022-10-28T14:00:33.930Z,19.99
2022-10-28T14:02:08.011Z,9.33
2022-10-28T14:03:24.224Z,13.73
2022-10-28T14:06:04.936Z,15.88
2022-10-28T14:07:28.115Z,28.43
2022-10-28T14:08:49.715Z,14.86
2022-10-28T14:10:23.212Z,12.57
2022-10-28T14:11:44.968Z,14.03
2022-10-28T14:13:08.837Z,21.79
2022-10-28T14:14:30.204Z,18.70
2022-10-28T14:16:14.246Z,23.10
2022-10-28T14:17:38.754Z,21.35
2022-10-28T14:19:02.750Z,30.41
2022-10-28T14:20:30.162Z,38.33
2022-10-28T14:22:06.081Z,26.92
2022-10-28T14:23:31.180Z,30.83
2022-10-28T14:24:55.057Z,24.72
2022-10-28T14:26:17.187Z,24.61
2022-10-28T14:27:43.234Z,37.26
2022-10-28T14:29:09.343Z,34.13
2022-10-28T14:30:30.930Z,29.32
2022-10-28T14:31:52.085Z,37.21
2022-10-28T14:33:19.358Z,24.27
2022-10-28T14:34:40.993Z,28.52
2022-10-28T14:36:21.059Z,22.21
2022-10-28T14:39:22.502Z,29.71
2022-10-28T14:40:48.263Z,30.87
2022-10-28T14:42:22.242Z,36.93
2022-10-28T14:43:56.414Z,24.05
2022-10-28T14:45:24.360Z,26.11
2022-10-28T14:48:27.501Z,23.74
2022-10-28T14:51:08.583Z,31.89
2022-10-28T14:52:30.595Z,37.50
2022-10-28T14:53:54.081Z,60.28
2022-10-28T14:56:55.808Z,50.47
2022-10-28T14:58:23.418Z,35.72
2022-10-28T14:59:45.030Z,43.77
2022-10-28T15:01:19.089Z,49.41
2022-10-28T15:02:41.629Z,43.28
2022-10-28T15:04:03.697Z,27.72
2022-10-28T15:05:28.017Z,41.35
2022-10-28T15:06:49.900Z,30.36
2022-10-28T15:08:11.163Z,43.00
2022-10-28T15:09:32.496Z,35.61
2022-10-28T15:10:55.020Z,33.38
2022-10-28T15:12:16.501Z,31.46
2022-10-28T15:13:38.832Z,20.58
2022-10-28T15:15:00.446Z,26.50
2022-10-28T15:16:22.792Z,30.51
2022-10-28T15:17:44.364Z,21.47
2022-10-28T15:19:05.781Z,25.98
2022-10-28T15:20:29.578Z,27.23
2022-10-28T15:23:21.181Z,27.07
2022-10-28T15:26:12.075Z,31.82
2022-10-28T15:27:34.856Z,36.29
2022-10-28T15:28:56.242Z,42.42
2022-10-28T15:30:24.060Z,19.91
2022-10-28T15:32:22.185Z,26.00
2022-10-28T15:33:43.786Z,27.37
2022-10-28T15:35:28.600Z,38.77
2022-10-28T15:36:50.200Z,39.96
2022-10-28T18:18:26.307Z,24.61
2022-10-28T18:19:47.630Z,23.03
2022-10-28T18:22:21.047Z,23.67
2022-10-28T18:23:42.680Z,23.78
2022-10-28T18:25:04.967Z,23.61
2022-10-28T18:26:26.210Z,23.19
2022-10-28T18:27:47.537Z,21.70
2022-10-28T18:29:09.094Z,25.99
2022-10-28T18:30:31.320Z,23.06
2022-10-28T18:31:52.562Z,23.85
2022-10-28T18:33:13.910Z,24.12
2022-10-28T18:34:35.443Z,23.33
2022-10-28T18:36:00.403Z,26.73
2022-10-28T18:37:21.509Z,26.15
2022-10-28T18:38:43.047Z,25.21
2022-10-28T18:40:05.342Z,28.89
2022-10-28T18:41:27.402Z,22.73
2022-10-28T18:42:48.332Z,25.43
2022-10-28T18:45:22.214Z,31.49
2022-10-28T18:46:44.035Z,29.69
2022-10-28T18:48:06.185Z,30.84
2022-10-28T18:49:27.786Z,30.63
2022-10-28T18:51:02.810Z,26.85
2022-10-28T18:52:24.494Z,29.13
2022-10-28T18:53:47.126Z,26.51
2022-10-28T18:55:08.952Z,27.48
2022-10-28T18:56:30.330Z,28.26
2022-10-28T18:57:51.382Z,24.66
2022-10-28T18:59:12.972Z,26.92
2022-10-28T19:00:34.209Z,26.32
2022-10-28T19:01:55.555Z,27.33
2022-10-28T19:04:37.069Z,19.38
2022-10-28T19:07:15.063Z,26.37
2022-10-28T19:08:38.142Z,27.36
2022-10-28T19:09:59.432Z,26.12
2022-10-28T19:11:21.311Z,26.76
2022-10-28T19:12:45.082Z,29.93
2022-10-28T19:14:06.006Z,28.96
2022-10-28T19:15:27.298Z,26.11
2022-10-28T19:16:48.729Z,27.49
2022-10-28T19:18:09.702Z,25.61
2022-10-28T19:19:35.522Z,26.72
2022-10-28T19:22:13.387Z,26.64
2022-10-28T19:23:34.870Z,25.85
2022-10-28T19:24:56.234Z,25.97
2022-10-28T19:26:18.232Z,22.17
2022-10-28T19:27:39.285Z,26.03
2022-10-28T19:29:00.949Z,25.03
2022-10-28T19:30:22.735Z,25.74
2022-10-28T19:31:43.954Z,24.00
2022-10-28T19:33:05.271Z,24.43
2022-10-28T19:34:26.443Z,25.99
2022-10-28T19:35:48.169Z,25.99
2022-10-28T19:37:09.296Z,24.17
2022-10-28T19:39:43.078Z,26.76
2022-10-28T19:41:09.998Z,26.97
2022-10-28T19:42:31.277Z,26.06
2022-10-28T19:43:58.474Z,25.63
2022-10-28T19:45:20.808Z,24.37
2022-10-28T19:46:42.450Z,26.49
2022-10-28T19:48:04.075Z,25.67
2022-10-28T19:49:32.438Z,25.53
2022-10-28T19:52:00.894Z,28.87
2022-10-28T19:53:22.598Z,27.80
2022-10-28T19:54:44.570Z,25.49
2022-10-28T19:56:06.544Z,27.89
2022-10-28T19:57:28.223Z,30.63
2022-10-28T19:58:51.141Z,27.10
2022-10-28T20:00:13.276Z,26.27
2022-10-28T20:01:36.142Z,31.43
2022-10-28T20:02:57.592Z,27.63
2022-10-28T20:04:19.101Z,27.63
2022-10-28T20:05:40.141Z,25.44
2022-10-28T20:07:01.538Z,31.83
2022-10-28T20:08:22.882Z,23.67
2022-10-28T20:09:44.028Z,25.79
2022-10-28T20:11:07.345Z,25.07
2022-10-28T20:13:56.235Z,23.44
2022-10-28T20:15:17.491Z,28.42
2022-10-28T20:16:40.033Z,25.52
2022-10-28T20:18:01.210Z,24.07
2022-10-28T20:19:22.580Z,24.77
2022-10-28T20:20:44.295Z,25.07
2022-10-28T20:22:05.601Z,28.27
2022-10-28T20:23:26.967Z,29.61
2022-10-28T20:24:48.418Z,29.27
2022-10-28T20:26:11.278Z,25.72
2022-10-28T20:27:32.579Z,30.09
2022-10-28T20:28:54.222Z,25.48
2022-10-28T20:30:15.861Z,28.08
2022-10-28T20:31:36.991Z,29.42
2022-10-28T20:32:58.510Z,21.99
2022-10-28T20:34:21.322Z,25.91
2022-10-28T20:36:39.783Z,23.39
2022-10-28T20:38:01.210Z,24.87
2022-10-28T20:39:23.892Z,26.42
2022-10-28T20:40:47.195Z,28.42
2022-10-28T20:42:08.987Z,31.49
2022-10-28T20:43:30.333Z,27.95
2022-10-28T20:44:51.656Z,24.27
2022-10-28T20:46:18.925Z,25.45
2022-10-28T20:47:36.959Z,24.29
2022-10-28T20:49:02.124Z,23.81
2022-10-28T20:50:23.142Z,23.14
2022-10-28T20:51:44.310Z,23.44
2022-10-28T20:53:06.075Z,24.06
2022-10-28T20:54:27.097Z,20.87
2022-10-28T20:55:54.179Z,24.21
2022-10-28T20:57:16.146Z,22.68
2022-10-28T20:58:37.290Z,21.21
2022-10-28T20:59:59.092Z,21.43
2022-10-28T21:01:24.967Z,17.82
2022-10-28T21:02:47.028Z,20.65
2022-10-28T21:04:09.592Z,21.48
2022-10-28T21:05:35.308Z,20.80
2022-10-28T21:06:56.593Z,19.48
2022-10-28T21:08:18.451Z,21.15
2022-10-28T21:09:39.657Z,21.54
2022-10-28T21:11:02.252Z,20.34
2022-10-28T21:12:23.388Z,21.31
2022-10-28T21:13:52.971Z,19.82
2022-10-28T21:15:14.202Z,18.69
2022-10-28T21:16:35.599Z,23.16
2022-10-28T21:17:57.213Z,19.81
2022-10-28T21:19:19.184Z,19.32
2022-10-28T21:20:40.412Z,19.07
2022-10-28T21:22:01.743Z,23.69
2022-10-28T21:23:23.725Z,19.29
2022-10-28T21:24:44.799Z,20.20
2022-10-28T21:26:07.595Z,18.01
2022-10-28T21:27:29.369Z,18.88
2022-10-28T21:28:50.984Z,19.81
2022-10-28T21:30:12.848Z,18.67
2022-10-28T21:31:33.921Z,28.81
2022-10-28T21:33:02.099Z,22.92
2022-10-28T21:34:23.790Z,19.39
2022-10-28T21:35:49.067Z,19.02
2022-10-28T21:37:10.259Z,18.77
2022-10-28T21:38:31.272Z,20.47
2022-10-28T21:39:55.071Z,17.72
2022-10-28T21:41:17.737Z,21.43
2022-10-28T21:42:38.916Z,19.78
2022-10-28T21:44:03.226Z,20.74
2022-10-28T21:45:24.872Z,21.71
2022-10-28T21:46:46.354Z,22.60
2022-10-28T21:48:07.757Z,25.03
2022-10-28T21:49:29.257Z,29.21
2022-10-28T21:50:52.291Z,24.27
2022-10-28T21:52:13.840Z,21.18
2022-10-28T21:53:36.246Z,21.61
2022-10-28T21:54:57.722Z,21.10
2022-10-28T21:56:21.297Z,19.33
2022-10-28T21:57:44.297Z,21.26
2022-10-28T21:59:05.273Z,21.61
2022-10-28T22:00:29.081Z,22.43
2022-10-28T22:01:50.934Z,23.23
2022-10-28T22:03:12.760Z,20.20
2022-10-28T22:04:35.206Z,22.85
2022-10-28T22:05:56.919Z,21.28
2022-10-28T22:07:18.112Z,20.61
2022-10-28T22:08:40.583Z,21.60
2022-10-28T22:10:02.041Z,22.29
2022-10-28T22:11:23.542Z,18.57
2022-10-28T22:12:44.857Z,20.05
2022-10-28T22:14:06.659Z,18.98
2022-10-28T22:15:27.809Z,19.19
2022-10-28T22:16:49.796Z,19.98
2022-10-28T22:18:11.460Z,21.39
2022-10-28T22:19:33.028Z,18.67
2022-10-28T22:20:54.640Z,20.80
2022-10-28T22:22:15.743Z,19.72
2022-10-28T22:23:37.436Z,20.84
2022-10-28T22:24:59.073Z,18.70
2022-10-28T22:26:25.385Z,21.06
2022-10-28T22:27:46.419Z,20.01
2022-10-28T22:29:08.151Z,20.26
2022-10-28T22:30:29.366Z,19.54
2022-10-28T22:31:52.880Z,20.58
2022-10-28T22:33:14.232Z,21.25
2022-10-28T22:34:35.902Z,19.28
2022-10-28T22:36:01.881Z,20.62
2022-10-28T22:37:23.001Z,17.35
2022-10-28T22:38:44.690Z,21.38
2022-10-28T22:40:07.768Z,21.39
2022-10-28T22:41:29.478Z,20.61
2022-10-28T22:42:50.735Z,21.78
2022-10-28T22:44:12.245Z,24.10
2022-10-28T22:45:33.612Z,22.32
2022-10-28T22:46:55.042Z,18.57
2022-10-28T22:48:16.013Z,20.71
2022-10-28T22:49:37.062Z,19.38
2022-10-28T22:52:13.991Z,18.14
2022-10-28T22:53:36.047Z,19.37
2022-10-28T22:54:57.430Z,17.47
2022-10-28T22:56:20.740Z,17.65
2022-10-28T22:57:42.011Z,17.18
2022-10-28T22:59:03.455Z,17.49
2022-10-28T23:00:25.056Z,16.36
2022-10-28T23:01:46.426Z,16.97
2022-10-28T23:03:07.785Z,17.32
2022-10-28T23:04:28.861Z,17.11
2022-10-28T23:05:49.953Z,16.42
2022-10-28T23:07:11.441Z,15.19
2022-10-28T23:08:33.018Z,17.11
2022-10-28T23:09:54.482Z,17.02